Time;durP1;ratioP1;P1;durP2;ratioP2;P2;SDS_P1;SDS_P2;PMS_P1;PMS_P2;Temp;Humidity;BMP_temperature;BMP_pressure;BME280_temperature;BME280_humidity;BME280_pressure;Samples;Min_cycle;Max_cycle;Signal;HPM_P1;HPM_P2
2021/07/28 00:00:55;;;;;;;23.63;14.43;;;16.80;99.90;;;;;;5071494;28;20488;-84
2021/07/28 00:03:22;;;;;;;17.27;14.02;;;16.80;99.90;;;;;;5073004;28;20059;-83
2021/07/28 00:05:49;;;;;;;23.80;13.93;;;16.80;99.90;;;;;;5072768;28;20048;-83
2021/07/28 00:08:16;;;;;;;25.77;14.88;;;16.80;99.90;;;;;;5071530;28;20058;-83
2021/07/28 00:10:43;;;;;;;22.65;15.38;;;16.80;99.90;;;;;;5072848;28;20045;-83
2021/07/28 00:13:09;;;;;;;23.13;16.25;;;16.80;99.90;;;;;;5071489;28;20056;-83
2021/07/28 00:15:37;;;;;;;24.52;16.75;;;16.80;99.90;;;;;;5072486;28;20135;-83
2021/07/28 00:18:12;;;;;;;28.88;17.23;;;16.80;99.90;;;;;;5072102;28;20052;-83
2021/07/28 00:23:14;;;;;;;21.00;16.95;;;16.70;99.90;;;;;;5072733;28;20048;-83
2021/07/28 00:25:47;;;;;;;31.67;19.10;;;16.70;99.90;;;;;;5071391;28;20552;-82
2021/07/28 00:28:14;;;;;;;32.13;18.65;;;16.70;99.90;;;;;;5073854;28;20053;-83
2021/07/28 00:30:42;;;;;;;36.03;21.10;;;16.80;99.90;;;;;;5090393;28;20049;-83
2021/07/28 00:33:09;;;;;;;29.13;18.23;;;16.90;99.90;;;;;;5073367;28;20408;-84
2021/07/28 00:35:36;;;;;;;30.00;18.58;;;16.90;99.90;;;;;;5071630;28;20044;-84
2021/07/28 00:38:06;;;;;;;32.53;19.52;;;16.80;99.90;;;;;;5071470;28;20044;-83
2021/07/28 00:40:34;;;;;;;34.80;20.40;;;16.80;99.90;;;;;;5071492;28;20053;-84
2021/07/28 00:43:08;;;;;;;31.60;18.90;;;16.80;99.90;;;;;;5072459;28;20044;-84
2021/07/28 00:45:35;;;;;;;26.42;18.00;;;16.80;99.90;;;;;;5072119;28;20062;-83
2021/07/28 00:48:02;;;;;;;30.05;20.85;;;16.70;99.90;;;;;;5070974;28;20059;-83
2021/07/28 00:50:28;;;;;;;31.40;19.77;;;16.80;99.90;;;;;;5071466;28;20527;-83
2021/07/28 00:52:59;;;;;;;25.38;18.50;;;16.80;99.90;;;;;;5071355;28;20408;-83
2021/07/28 00:55:25;;;;;;;25.10;18.75;;;16.80;99.90;;;;;;5071053;28;20120;-83
2021/07/28 00:57:53;;;;;;;24.02;17.55;;;16.90;99.90;;;;;;5071055;28;20493;-83
2021/07/28 01:00:20;;;;;;;27.65;18.40;;;16.90;99.90;;;;;;5072292;28;20572;-83
2021/07/28 01:02:47;;;;;;;28.85;17.45;;;16.80;99.90;;;;;;5072343;28;20052;-83
2021/07/28 01:05:14;;;;;;;23.50;17.85;;;16.70;99.90;;;;;;5071999;28;20090;-83
2021/07/28 01:07:40;;;;;;;23.08;17.95;;;16.70;99.90;;;;;;5070425;28;20418;-83
2021/07/28 01:10:08;;;;;;;26.10;18.45;;;16.70;99.90;;;;;;5071030;28;20098;-83
2021/07/28 01:12:41;;;;;;;27.45;18.55;;;16.70;99.90;;;;;;5073104;28;20054;-82
2021/07/28 01:15:09;;;;;;;;;;;16.60;99.90;;;;;;5075110;28;20067;-82
2021/07/28 01:17:36;;;;;;;23.25;16.55;;;16.70;99.90;;;;;;5074525;28;19920;-82
2021/07/28 01:20:06;;;;;;;23.45;16.02;;;16.60;99.90;;;;;;5074750;28;20139;-83
2021/07/28 01:22:34;;;;;;;21.58;16.23;;;16.60;99.90;;;;;;5075717;28;20594;-83
2021/07/28 01:25:01;;;;;;;26.80;17.98;;;16.60;99.90;;;;;;5074125;28;20139;-83
2021/07/28 01:27:29;;;;;;;25.60;18.10;;;16.60;99.90;;;;;;5074328;28;20451;-83
2021/07/28 01:29:57;;;;;;;28.52;19.40;;;16.60;99.90;;;;;;5075584;28;20063;-83
2021/07/28 01:32:24;;;;;;;29.17;19.92;;;16.60;99.90;;;;;;5074393;28;20049;-82
2021/07/28 01:34:53;;;;;;;20.30;16.48;;;16.40;99.90;;;;;;5075394;28;20071;-84
2021/07/28 01:37:22;;;;;;;25.08;16.88;;;16.40;99.90;;;;;;5074184;28;20033;-83
2021/07/28 01:39:49;;;;;;;20.13;16.55;;;16.40;99.90;;;;;;5074306;28;20045;-83
2021/07/28 01:42:16;;;;;;;25.85;17.73;;;16.30;99.90;;;;;;5075325;28;20049;-83
2021/07/28 01:44:43;;;;;;;27.70;18.55;;;16.30;99.90;;;;;;5074078;28;20053;-83
2021/07/28 01:47:10;;;;;;;31.52;22.52;;;16.40;99.90;;;;;;5074873;28;20049;-83
2021/07/28 01:49:36;;;;;;;23.00;18.60;;;16.40;99.90;;;;;;5092411;28;20096;-83
2021/07/28 01:52:03;;;;;;;25.67;18.77;;;16.40;99.90;;;;;;5082607;28;20052;-83
2021/07/28 01:54:30;;;;;;;27.08;19.38;;;16.40;99.90;;;;;;5075020;28;20052;-83
2021/07/28 01:56:57;;;;;;;35.10;21.85;;;16.40;99.90;;;;;;5073578;28;20051;-84
2021/07/28 01:59:25;;;;;;;37.50;22.00;;;16.40;99.90;;;;;;5073285;28;20054;-84
2021/07/28 02:01:52;;;;;;;28.10;20.95;;;16.40;99.90;;;;;;5074550;28;20404;-83
2021/07/28 02:04:19;;;;;;;30.17;22.92;;;16.50;99.90;;;;;;5073633;28;20098;-83
2021/07/28 02:06:45;;;;;;;36.28;24.08;;;16.50;99.90;;;;;;5074902;28;20489;-83
2021/07/28 02:09:12;;;;;;;41.28;24.75;;;16.50;99.90;;;;;;5073801;28;20054;-83
2021/07/28 02:11:39;;;;;;;36.17;23.50;;;16.50;99.90;;;;;;5073881;28;20051;-83
2021/07/28 02:14:06;;;;;;;34.47;24.33;;;16.50;99.90;;;;;;5073388;28;20052;-84
2021/07/28 02:16:33;;;;;;;55.92;28.48;;;16.50;99.90;;;;;;5073139;28;20051;-83
2021/07/28 02:19:00;;;;;;;52.20;28.52;;;16.50;99.90;;;;;;5072975;28;20416;-83
2021/07/28 02:21:27;;;;;;;32.33;23.35;;;16.40;99.90;;;;;;5073123;28;20044;-84
2021/07/28 02:23:53;;;;;;;35.63;24.23;;;16.60;99.90;;;;;;5073189;28;20049;-84
2021/07/28 02:26:20;;;;;;;49.15;26.05;;;16.60;99.90;;;;;;5073252;28;20139;-83
2021/07/28 02:28:47;;;;;;;61.17;24.45;;;16.70;99.90;;;;;;5073439;28;20045;-84
2021/07/28 02:31:14;;;;;;;32.90;24.38;;;16.70;99.90;;;;;;5072927;28;20052;-83
2021/07/28 02:33:40;;;;;;;47.55;26.70;;;16.80;99.90;;;;;;5074220;28;20045;-84
2021/07/28 02:36:07;;;;;;;41.70;24.58;;;16.80;99.90;;;;;;5072564;28;20050;-84
2021/07/28 02:38:34;;;;;;;46.40;26.25;;;16.80;99.90;;;;;;5074313;28;20052;-84
2021/07/28 02:41:01;;;;;;;56.45;26.63;;;16.80;99.90;;;;;;5072919;28;20075;-84
2021/07/28 02:43:28;;;;;;;59.92;25.52;;;16.70;99.90;;;;;;5072553;28;20477;-85
2021/07/28 02:45:54;;;;;;;42.50;25.55;;;16.70;99.90;;;;;;5072577;28;20123;-84
2021/07/28 02:48:21;;;;;;;44.00;23.27;;;16.70;99.90;;;;;;5072605;28;20055;-83
2021/07/28 02:50:48;;;;;;;36.70;24.17;;;16.70;99.90;;;;;;5073920;28;20083;-83
2021/07/28 02:53:15;;;;;;;37.55;24.88;;;16.80;99.90;;;;;;5073969;28;20481;-83
2021/07/28 02:55:42;;;;;;;42.90;25.10;;;16.80;99.90;;;;;;5072416;28;20048;-83
2021/07/28 02:58:08;;;;;;;46.05;26.55;;;16.70;99.90;;;;;;5072265;28;20052;-83
2021/07/28 03:00:35;;;;;;;35.78;24.15;;;16.80;99.90;;;;;;5072507;28;20048;-84
2021/07/28 03:03:02;;;;;;;36.35;22.98;;;16.70;99.90;;;;;;5072555;28;20063;-83
2021/07/28 03:05:29;;;;;;;35.00;24.50;;;16.60;99.90;;;;;;5074559;28;20048;-84
2021/07/28 03:07:56;;;;;;;33.65;21.35;;;16.70;99.90;;;;;;5089120;28;20117;-83
2021/07/28 03:10:22;;;;;;;35.13;22.58;;;16.70;99.90;;;;;;5077480;28;20051;-84
2021/07/28 03:12:50;;;;;;;36.55;23.63;;;16.70;99.90;;;;;;5072062;28;20139;-84
2021/07/28 03:15:16;;;;;;;39.80;23.55;;;16.60;99.90;;;;;;5072295;28;20071;-84
2021/07/28 03:17:43;;;;;;;40.47;25.35;;;16.60;99.90;;;;;;5071959;28;20055;-84
2021/07/28 03:20:10;;;;;;;43.42;23.48;;;16.50;99.90;;;;;;5073050;28;20056;-84
2021/07/28 03:22:37;;;;;;;33.78;23.02;;;16.60;99.90;;;;;;5072173;28;20059;-84
2021/07/28 03:25:04;;;;;;;35.92;21.92;;;16.60;99.90;;;;;;5071982;28;20420;-84
2021/07/28 03:27:31;;;;;;;32.50;21.52;;;16.60;99.90;;;;;;5072029;28;20048;-84
2021/07/28 03:29:58;;;;;;;36.85;20.95;;;16.70;99.90;;;;;;5072019;28;20139;-83
2021/07/28 03:32:25;;;;;;;28.13;20.85;;;16.70;99.90;;;;;;5072096;28;20080;-84
2021/07/28 03:34:51;;;;;;;24.80;19.52;;;16.70;99.90;;;;;;5071529;28;20425;-83
2021/07/28 03:37:18;;;;;;;33.22;20.70;;;16.70;99.90;;;;;;5072053;28;20062;-84
2021/07/28 03:39:45;;;;;;;28.70;20.48;;;16.60;99.90;;;;;;5071874;28;20131;-84
2021/07/28 03:42:12;;;;;;;26.17;18.60;;;16.60;99.90;;;;;;5071864;28;20633;-83
2021/07/28 03:44:39;;;;;;;26.55;19.52;;;16.60;99.90;;;;;;5072871;28;20563;-84
2021/07/28 03:47:05;;;;;;;34.40;20.20;;;16.70;99.90;;;;;;5072202;28;20052;-84
2021/07/28 03:49:32;;;;;;;32.35;19.30;;;16.70;99.90;;;;;;5073349;28;20044;-84
2021/07/28 03:51:59;;;;;;;24.60;18.17;;;16.70;99.90;;;;;;5071698;28;20044;-83
2021/07/28 03:54:26;;;;;;;24.15;18.27;;;16.70;99.90;;;;;;5072883;28;20072;-83
2021/07/28 03:56:52;;;;;;;27.00;19.80;;;16.70;99.90;;;;;;5071480;28;20428;-83
2021/07/28 03:59:19;;;;;;;24.60;18.13;;;16.70;99.90;;;;;;5072861;28;20107;-83
2021/07/28 04:01:50;;;;;;;24.98;18.65;;;16.70;99.90;;;;;;5071788;28;20094;-83
2021/07/28 04:04:17;;;;;;;25.23;18.60;;;16.70;99.90;;;;;;5072303;28;20048;-84
2021/07/28 04:06:44;;;;;;;23.20;19.08;;;16.70;99.90;;;;;;5072972;28;20382;-84
2021/07/28 04:09:11;;;;;;;23.40;18.38;;;16.70;99.90;;;;;;5072692;28;20053;-83
2021/07/28 04:11:37;;;;;;;24.15;17.90;;;16.70;99.90;;;;;;5071506;28;20044;-83
2021/07/28 04:14:04;;;;;;;22.50;18.38;;;16.70;99.90;;;;;;5072550;28;20143;-83
2021/07/28 04:16:31;;;;;;;28.67;20.55;;;16.70;99.90;;;;;;5071532;28;20048;-84
2021/07/28 04:18:58;;;;;;;30.17;19.77;;;16.80;99.90;;;;;;5072640;28;20052;-84
2021/07/28 04:21:25;;;;;;;23.63;16.95;;;16.80;99.90;;;;;;5072739;28;20477;-84
2021/07/28 04:23:51;;;;;;;24.40;17.83;;;16.70;99.90;;;;;;5071390;28;20057;-84
2021/07/28 04:26:18;;;;;;;36.40;19.92;;;16.80;99.90;;;;;;5072029;28;20110;-84
2021/07/28 04:28:45;;;;;;;29.88;19.63;;;16.80;99.90;;;;;;5073408;28;20131;-84
2021/07/28 04:31:12;;;;;;;19.48;16.45;;;16.70;99.90;;;;;;5071730;28;20087;-84
2021/07/28 04:33:39;;;;;;;23.75;18.35;;;16.70;99.90;;;;;;5071705;28;20409;-84
2021/07/28 04:36:06;;;;;;;20.02;16.35;;;16.80;99.90;;;;;;5071014;28;20048;-84
2021/07/28 04:38:32;;;;;;;37.38;21.88;;;16.80;99.90;;;;;;5071331;28;20055;-84
2021/07/28 04:41:00;;;;;;;35.75;21.85;;;16.90;99.90;;;;;;5071583;28;20082;-84
2021/07/28 04:43:27;;;;;;;24.20;18.27;;;16.90;99.90;;;;;;5072646;28;20075;-84
2021/07/28 04:46:01;;;;;;;20.48;16.70;;;16.90;99.90;;;;;;5072318;28;20094;-84
2021/07/28 04:48:29;;;;;;;18.40;15.38;;;16.90;99.90;;;;;;5075141;28;20053;-84
2021/07/28 04:50:58;;;;;;;28.83;18.35;;;16.90;99.90;;;;;;5075965;28;20408;-84
2021/07/28 04:53:28;;;;;;;21.02;16.70;;;16.90;99.90;;;;;;5076801;28;20044;-84
2021/07/28 04:55:56;;;;;;;19.35;15.57;;;17.00;99.90;;;;;;5075788;28;20104;-84
2021/07/28 04:58:23;;;;;;;17.65;14.70;;;17.00;99.90;;;;;;5075378;28;20389;-85
2021/07/28 05:00:50;;;;;;;16.88;15.07;;;17.00;99.90;;;;;;5073708;28;20045;-85
2021/07/28 05:03:18;;;;;;;17.08;15.23;;;17.10;99.90;;;;;;5073689;28;20148;-85
2021/07/28 05:05:45;;;;;;;22.27;17.42;;;17.10;99.90;;;;;;5074678;28;20052;-85
2021/07/28 05:08:12;;;;;;;20.30;15.50;;;17.20;99.90;;;;;;5074785;28;20410;-85
2021/07/28 05:10:39;;;;;;;18.77;13.98;;;17.20;99.90;;;;;;5073555;28;20079;-85
2021/07/28 05:13:05;;;;;;;15.75;14.07;;;17.20;99.90;;;;;;5074519;28;20076;-84
2021/07/28 05:15:32;;;;;;;17.20;15.00;;;17.20;99.90;;;;;;5075587;28;20476;-83
2021/07/28 05:17:59;;;;;;;15.45;13.75;;;17.20;99.90;;;;;;5076254;28;20049;-84
2021/07/28 05:20:26;;;;;;;21.65;15.82;;;17.20;99.90;;;;;;5076573;28;20059;-85
2021/07/28 05:22:52;;;;;;;21.10;16.40;;;17.20;99.90;;;;;;5076491;28;20048;-84
2021/07/28 05:25:19;;;;;;;17.90;14.02;;;17.00;99.90;;;;;;5075317;28;20424;-85
2021/07/28 05:27:46;;;;;;;14.40;12.45;;;17.40;99.90;;;;;;5075411;28;20044;-85
2021/07/28 05:30:14;;;;;;;11.52;8.38;;;18.20;99.90;;;;;;5076212;28;20044;-85
2021/07/28 05:32:41;;;;;;;9.98;7.50;;;19.10;99.90;;;;;;5076437;28;20141;-84
2021/07/28 05:35:08;;;;;;;7.45;6.47;;;20.20;99.90;;;;;;5075031;28;20135;-84
2021/07/28 05:37:35;;;;;;;7.47;6.03;;;21.60;99.90;;;;;;5075312;28;20503;-85
2021/07/28 05:40:02;;;;;;;5.97;5.47;;;22.60;99.90;;;;;;5075777;28;20102;-84
2021/07/28 05:42:28;;;;;;;5.97;5.38;;;23.30;99.90;;;;;;5076332;28;20083;-85
2021/07/28 05:44:55;;;;;;;8.07;5.60;;;23.50;99.90;;;;;;5075479;28;20048;-85
2021/07/28 05:47:22;;;;;;;8.23;5.55;;;23.40;99.90;;;;;;5079646;28;20054;-84
2021/07/28 05:49:49;;;;;;;6.97;5.10;;;23.50;99.90;;;;;;5078921;28;20044;-85
2021/07/28 05:52:15;;;;;;;6.65;5.53;;;24.00;99.90;;;;;;5074947;28;20135;-85
2021/07/28 05:54:42;;;;;;;6.00;4.95;;;24.40;99.90;;;;;;5074613;28;20047;-84
2021/07/28 05:57:09;;;;;;;6.90;4.35;;;25.00;99.90;;;;;;5073935;28;20630;-84
2021/07/28 05:59:36;;;;;;;4.53;4.10;;;26.00;99.90;;;;;;5074270;28;20151;-84
2021/07/28 06:02:03;;;;;;;4.47;3.80;;;26.50;99.90;;;;;;5074333;28;20527;-84
2021/07/28 06:04:30;;;;;;;6.30;3.80;;;26.80;99.90;;;;;;5074727;28;20135;-84
2021/07/28 06:06:57;;;;;;;3.88;3.58;;;26.50;99.90;;;;;;5074604;28;20497;-85
2021/07/28 06:09:23;;;;;;;4.60;3.42;;;26.00;99.90;;;;;;5075578;28;20044;-84
2021/07/28 06:11:50;;;;;;;3.38;3.08;;;26.40;99.90;;;;;;5074261;28;20404;-84
2021/07/28 06:14:17;;;;;;;6.05;3.28;;;26.00;99.90;;;;;;5074449;28;20052;-85
2021/07/28 06:16:44;;;;;;;4.05;3.45;;;26.20;99.90;;;;;;5074139;28;20045;-83
2021/07/28 06:19:11;;;;;;;3.47;3.00;;;25.60;99.90;;;;;;5073750;28;20049;-84
2021/07/28 06:21:37;;;;;;;4.80;3.30;;;25.80;99.90;;;;;;5075048;28;20048;-84
2021/07/28 06:24:04;;;;;;;2.83;2.72;;;25.20;99.90;;;;;;5073784;28;20048;-83
2021/07/28 06:26:31;;;;;;;3.33;3.03;;;25.30;99.90;;;;;;5073731;28;20493;-83
2021/07/28 06:28:58;;;;;;;3.55;3.20;;;25.30;99.90;;;;;;5073671;28;20040;-83
2021/07/28 06:31:24;;;;;;;7.43;3.40;;;25.70;99.90;;;;;;5074877;28;20082;-83
2021/07/28 06:33:51;;;;;;;7.78;2.88;;;26.40;99.90;;;;;;5073453;28;20044;-83
2021/07/28 06:36:18;;;;;;;3.38;2.83;;;27.30;99.90;;;;;;5072525;28;20048;-83
2021/07/28 06:38:45;;;;;;;3.05;2.83;;;28.30;99.90;;;;;;5073749;28;20051;-82
2021/07/28 06:41:11;;;;;;;3.78;2.75;;;28.80;99.90;;;;;;5072321;28;20124;-83
2021/07/28 06:43:38;;;;;;;3.72;2.92;;;29.00;99.90;;;;;;5072791;28;20453;-81
2021/07/28 06:46:05;;;;;;;3.20;2.90;;;28.30;99.90;;;;;;5072938;28;20091;-82
2021/07/28 06:48:32;;;;;;;3.15;2.72;;;27.40;99.90;;;;;;5074230;28;20536;-82
2021/07/28 06:50:59;;;;;;;3.13;2.92;;;27.70;99.90;;;;;;5072831;28;20106;-82
2021/07/28 06:53:26;;;;;;;3.30;3.00;;;27.50;99.90;;;;;;5072488;28;20049;-82
2021/07/28 06:55:53;;;;;;;5.75;2.88;;;26.40;99.90;;;;;;5073683;28;20055;-82
2021/07/28 06:58:19;;;;;;;3.10;2.83;;;26.10;99.90;;;;;;5072595;28;20143;-83
2021/07/28 07:00:46;;;;;;;3.67;2.80;;;26.10;99.90;;;;;;5072423;28;20118;-82
2021/07/28 07:03:13;;;;;;;6.60;3.25;;;25.90;99.90;;;;;;5073376;28;20049;-81
2021/07/28 07:05:42;;;;;;;3.45;3.17;;;25.00;99.90;;;;;;5073144;28;20048;-82
2021/07/28 07:08:09;;;;;;;3.35;3.10;;;24.00;99.90;;;;;;5073711;28;20460;-83
2021/07/28 07:10:36;;;;;;;6.47;3.40;;;23.60;99.90;;;;;;5071120;28;20044;-82
2021/07/28 07:13:05;;;;;;;4.07;3.50;;;22.80;99.90;;;;;;5072408;28;20051;-83
2021/07/28 07:15:31;;;;;;;3.55;3.33;;;22.30;99.90;;;;;;5073464;28;20055;-81
2021/07/28 07:17:58;;;;;;;3.85;3.55;;;21.80;99.90;;;;;;5071907;28;20056;-82
2021/07/28 07:20:25;;;;;;;4.47;3.58;;;21.50;99.90;;;;;;5073040;28;20075;-82
2021/07/28 07:22:52;;;;;;;4.38;3.50;;;21.30;99.90;;;;;;5071234;28;20076;-82
2021/07/28 07:25:20;;;;;;;7.28;3.60;;;21.50;99.90;;;;;;5071244;28;20394;-82
2021/07/28 07:27:47;;;;;;;3.78;3.40;;;21.70;99.90;;;;;;5072000;28;20128;-82
2021/07/28 07:30:13;;;;;;;3.42;3.22;;;21.70;99.90;;;;;;5071597;28;20063;-81
2021/07/28 07:32:40;;;;;;;3.60;3.30;;;21.60;99.90;;;;;;5073423;28;20147;-82
2021/07/28 07:35:07;;;;;;;3.42;3.20;;;21.70;99.90;;;;;;5073053;28;20052;-83
2021/07/28 07:37:34;;;;;;;3.63;3.05;;;21.40;99.90;;;;;;5071962;28;20403;-82
2021/07/28 07:40:01;;;;;;;3.80;3.50;;;21.20;99.90;;;;;;5072391;28;20052;-82
2021/07/28 07:42:28;;;;;;;5.70;3.67;;;21.10;99.90;;;;;;5072881;28;20055;-82
2021/07/28 07:44:58;;;;;;;5.25;3.25;;;21.00;99.90;;;;;;5072676;28;20439;-82
2021/07/28 07:47:25;;;;;;;3.47;3.17;;;21.00;99.90;;;;;;5072866;28;20101;-82
2021/07/28 07:49:52;;;;;;;3.67;3.38;;;21.20;99.90;;;;;;5070811;28;20068;-83
2021/07/28 07:52:19;;;;;;;3.88;3.58;;;21.30;99.90;;;;;;5070932;28;20132;-83
2021/07/28 07:54:46;;;;;;;4.38;3.67;;;21.20;99.90;;;;;;5071721;28;20564;-81
2021/07/28 07:57:12;;;;;;;3.50;3.30;;;21.30;99.90;;;;;;5072465;28;20055;-82
2021/07/28 07:59:40;;;;;;;4.43;4.03;;;21.30;99.90;;;;;;5071145;28;20088;-82
2021/07/28 08:02:07;;;;;;;3.83;3.45;;;21.40;99.90;;;;;;5072115;28;20056;-82
2021/07/28 08:04:34;;;;;;;4.20;3.60;;;21.50;99.90;;;;;;5070999;28;20052;-83
2021/07/28 08:07:01;;;;;;;4.00;3.20;;;21.50;99.90;;;;;;5071044;28;20135;-82
2021/07/28 08:09:28;;;;;;;3.50;3.30;;;21.70;99.90;;;;;;5072334;28;20055;-84
2021/07/28 08:11:56;;;;;;;4.30;3.90;;;22.40;99.90;;;;;;5070646;28;20143;-82
2021/07/28 08:14:23;;;;;;;5.25;3.70;;;22.40;99.90;;;;;;5071522;28;20049;-81
2021/07/28 08:16:50;;;;;;;4.70;3.60;;;22.70;99.90;;;;;;5071293;28;20048;-82
2021/07/28 08:19:17;;;;;;;3.53;3.22;;;22.90;99.90;;;;;;5070834;28;20084;-83
2021/07/28 08:21:47;;;;;;;5.45;3.60;;;23.10;99.90;;;;;;5070769;28;20199;-82
2021/07/28 08:24:16;;;;;;;5.88;3.60;;;23.50;99.90;;;;;;5071317;28;20141;-84
2021/07/28 08:26:43;;;;;;;6.40;3.60;;;23.30;99.90;;;;;;5081187;28;20127;-82
2021/07/28 08:29:11;;;;;;;10.10;3.60;;;23.00;99.90;;;;;;5072230;28;20481;-82
2021/07/28 08:31:41;;;;;;;3.80;3.50;;;23.00;99.90;;;;;;5071351;28;20048;-84
2021/07/28 08:34:08;;;;;;;3.50;3.30;;;22.90;99.90;;;;;;5071982;28;20048;-82
2021/07/28 08:36:35;;;;;;;5.72;3.42;;;23.30;99.90;;;;;;5071917;28;20136;-81
2021/07/28 08:39:01;;;;;;;6.07;3.35;;;24.00;99.90;;;;;;5070867;28;20052;-83
2021/07/28 08:41:33;;;;;;;4.70;3.65;;;23.80;99.90;;;;;;5070949;28;20485;-83
2021/07/28 08:44:00;;;;;;;3.58;3.38;;;23.90;99.90;;;;;;5070921;28;20079;-85
2021/07/28 08:46:27;;;;;;;3.65;3.17;;;23.80;99.90;;;;;;5072044;28;20048;-83
2021/07/28 08:48:54;;;;;;;4.30;3.20;;;23.90;99.90;;;;;;5070836;28;20060;-84
2021/07/28 08:51:26;;;;;;;3.50;3.20;;;24.30;99.90;;;;;;5070807;28;20044;-83
2021/07/28 08:53:53;;;;;;;3.92;2.97;;;23.90;99.90;;;;;;5070567;28;20048;-83
2021/07/28 08:56:23;;;;;;;3.58;2.95;;;24.10;99.90;;;;;;5070814;28;20507;-86
2021/07/28 08:58:50;;;;;;;4.72;3.47;;;24.10;99.90;;;;;;5070871;28;20136;-83
2021/07/28 09:01:17;;;;;;;3.70;3.00;;;24.00;99.90;;;;;;5070852;28;20055;-82
2021/07/28 09:03:45;;;;;;;5.05;2.95;;;24.00;99.90;;;;;;5071013;28;20432;-83
2021/07/28 09:06:29;;;;;;;8.00;3.20;;;24.00;99.90;;;;;;5070827;28;20088;-83
2021/07/28 09:09:00;;;;;;;3.15;2.83;;;24.10;99.90;;;;;;5070721;28;20053;-84
2021/07/28 09:11:27;;;;;;;3.90;3.05;;;23.80;99.90;;;;;;5071101;28;20067;-83
2021/07/28 09:14:15;;;;;;;4.40;3.08;;;23.80;99.90;;;;;;5071712;28;20137;-84
2021/07/28 09:16:42;;;;;;;6.68;3.10;;;23.50;99.90;;;;;;5056729;28;20051;-85
2021/07/28 09:19:08;;;;;;;2.75;2.55;;;23.30;99.90;;;;;;5070620;28;20056;-84
2021/07/28 09:21:35;;;;;;;2.67;2.50;;;23.20;99.90;;;;;;5072325;28;20155;-86
2021/07/28 09:24:10;;;;;;;2.72;2.53;;;23.30;99.90;;;;;;5070288;28;20052;-84
2021/07/28 09:29:17;;;;;;;4.63;3.00;;;23.30;99.90;;;;;;5072139;28;20041;-84
2021/07/28 09:31:53;;;;;;;3.00;2.80;;;23.20;99.90;;;;;;5070431;28;20123;-85
2021/07/28 09:34:23;;;;;;;3.08;2.78;;;23.30;99.90;;;;;;5074827;28;20102;-84
2021/07/28 09:37:13;;;;;;;6.10;3.08;;;23.30;99.90;;;;;;5074660;28;20067;-85
2021/07/28 09:39:45;;;;;;;3.20;3.00;;;23.30;99.90;;;;;;5074908;28;20098;-84
2021/07/28 09:42:17;;;;;;;3.28;2.97;;;23.00;99.90;;;;;;5074678;28;20053;-84
2021/07/28 09:44:53;;;;;;;3.15;2.85;;;22.50;99.90;;;;;;5082671;28;20113;-84
2021/07/28 09:47:24;;;;;;;5.75;4.55;;;22.30;99.90;;;;;;5078380;28;20040;-84
2021/07/28 09:50:11;;;;;;;3.47;3.17;;;22.50;99.90;;;;;;5074265;28;20523;-84
2021/07/28 09:52:38;;;;;;;7.00;3.20;;;22.90;99.90;;;;;;5074281;28;20047;-85
2021/07/28 09:55:24;;;;;;;3.33;3.00;;;23.00;99.90;;;;;;5074262;28;20052;-83
2021/07/28 09:57:55;;;;;;;4.20;3.20;;;22.90;99.90;;;;;;5074203;28;20044;-83
2021/07/28 10:00:24;;;;;;;4.97;2.90;;;23.20;99.90;;;;;;5074154;28;20044;-84
2021/07/28 10:02:51;;;;;;;3.67;3.40;;;23.40;99.90;;;;;;5075137;28;20045;-84
2021/07/28 10:05:19;;;;;;;4.25;2.75;;;23.90;99.90;;;;;;5074304;28;20052;-84
2021/07/28 10:07:49;;;;;;;8.43;3.45;;;24.10;99.90;;;;;;5073844;28;20060;-83
2021/07/28 10:10:19;;;;;;;4.95;3.08;;;24.00;99.90;;;;;;5073987;28;20127;-84
2021/07/28 10:12:48;;;;;;;3.90;3.13;;;23.80;99.90;;;;;;5073617;28;20135;-85
2021/07/28 10:15:20;;;;;;;6.00;3.23;;;23.80;99.90;;;;;;5073705;28;20044;-83
2021/07/28 10:17:48;;;;;;;3.65;3.25;;;23.90;99.90;;;;;;5073479;28;20125;-86
2021/07/28 10:20:15;;;;;;;5.63;3.22;;;23.80;99.90;;;;;;5074728;28;20449;-84
2021/07/28 10:22:43;;;;;;;3.35;2.85;;;23.50;99.90;;;;;;5073897;28;20048;-85
2021/07/28 10:25:15;;;;;;;3.45;3.00;;;23.40;99.90;;;;;;5074530;28;20071;-83
2021/07/28 10:27:44;;;;;;;5.90;2.90;;;23.40;99.90;;;;;;5073731;28;20528;-85
2021/07/28 10:30:14;;;;;;;3.28;2.97;;;23.60;99.90;;;;;;5074786;28;20398;-86
2021/07/28 10:32:42;;;;;;;3.15;2.95;;;23.40;99.90;;;;;;5073771;28;20080;-87
2021/07/28 10:35:24;;;;;;;4.10;3.40;;;23.60;99.90;;;;;;5073649;28;20074;-86
2021/07/28 10:37:59;;;;;;;4.60;3.03;;;23.80;99.90;;;;;;5073788;28;20048;-84
2021/07/28 10:40:32;;;;;;;3.00;2.60;;;23.70;99.90;;;;;;5073524;28;20059;-84
2021/07/28 10:43:01;;;;;;;2.97;2.78;;;23.90;99.90;;;;;;5074508;28;20052;-84
2021/07/28 10:46:00;;;;;;;2.97;2.65;;;24.30;99.90;;;;;;5073217;28;20079;-85
2021/07/28 10:48:48;;;;;;;5.00;3.00;;;24.90;99.90;;;;;;5073591;28;20080;-83
2021/07/28 10:51:52;;;;;;;4.30;2.90;;;24.90;99.90;;;;;;5074729;28;20499;-85
2021/07/28 10:54:48;;;;;;;2.55;2.35;;;24.90;99.90;;;;;;5073242;28;20510;-86
2021/07/28 10:57:44;;;;;;;4.43;2.67;;;24.40;99.90;;;;;;5072845;28;20051;-84
2021/07/28 11:00:12;;;;;;;6.38;3.03;;;23.90;99.90;;;;;;5073243;28;20052;-84
2021/07/28 11:02:52;;;;;;;3.10;2.80;;;23.80;99.90;;;;;;5073251;28;20091;-84
2021/07/28 11:05:27;;;;;;;4.20;2.90;;;23.70;99.90;;;;;;5085596;28;20120;-83
2021/07/28 11:08:03;;;;;;;4.82;2.60;;;23.90;99.90;;;;;;5073634;28;20128;-85
2021/07/28 11:10:34;;;;;;;3.47;3.17;;;24.20;99.90;;;;;;5072848;28;20053;-84
2021/07/28 11:13:09;;;;;;;4.60;3.05;;;23.90;99.90;;;;;;5072960;28;20048;-86
2021/07/28 11:15:37;;;;;;;3.47;2.70;;;23.60;99.90;;;;;;5073945;28;20420;-84
2021/07/28 11:18:05;;;;;;;11.82;5.40;;;23.50;99.90;;;;;;5073361;28;20099;-85
2021/07/28 11:20:35;;;;;;;6.18;3.00;;;23.60;99.90;;;;;;5073515;28;20416;-85
2021/07/28 11:23:21;;;;;;;4.05;3.20;;;23.80;99.90;;;;;;5072824;28;20041;-86
2021/07/28 11:25:48;;;;;;;3.38;2.65;;;23.80;99.90;;;;;;5073281;28;20091;-86
2021/07/28 11:28:21;;;;;;;2.97;2.78;;;23.90;99.90;;;;;;5072621;28;20054;-85
2021/07/28 11:30:55;;;;;;;4.53;2.90;;;23.90;99.90;;;;;;5072521;28;20052;-88
2021/07/28 11:33:22;;;;;;;2.70;2.50;;;24.00;99.90;;;;;;5072776;28;20048;-85
2021/07/28 11:35:51;;;;;;;15.68;3.88;;;23.80;99.90;;;;;;5072264;28;20048;-85
2021/07/28 11:38:32;;;;;;;5.00;3.33;;;23.80;99.90;;;;;;5073217;28;20068;-84
2021/07/28 11:41:01;;;;;;;4.57;2.95;;;24.20;99.90;;;;;;5073408;28;20048;-87
2021/07/28 11:43:41;;;;;;;6.88;4.13;;;24.30;99.90;;;;;;5072575;28;20048;-85
2021/07/28 11:46:18;;;;;;;2.65;2.50;;;24.90;99.90;;;;;;5072107;28;20082;-85
2021/07/28 11:48:50;;;;;;;3.25;2.85;;;25.60;99.90;;;;;;5073286;28;20507;-85
2021/07/28 11:51:17;;;;;;;2.80;2.60;;;26.20;99.90;;;;;;5072326;28;20052;-84
2021/07/28 11:53:43;;;;;;;4.13;2.97;;;26.30;99.90;;;;;;5072121;28;20082;-85
2021/07/28 11:56:12;;;;;;;8.48;3.17;;;25.90;99.90;;;;;;5071348;28;20423;-82
2021/07/28 11:58:46;;;;;;;4.10;3.08;;;25.90;99.90;;;;;;5073368;28;20052;-82
2021/07/28 12:01:21;;;;;;;3.10;2.80;;;25.70;99.90;;;;;;5072025;28;20494;-84
2021/07/28 12:04:04;;;;;;;2.80;2.60;;;25.70;99.90;;;;;;5073072;28;20044;-86
2021/07/28 12:06:37;;;;;;;9.88;4.75;;;25.60;99.90;;;;;;5071799;28;20045;-85
2021/07/28 12:09:23;;;;;;;7.30;2.78;;;25.10;99.90;;;;;;5072244;28;20041;-86
2021/07/28 12:12:03;;;;;;;2.70;2.50;;;25.00;99.90;;;;;;5071687;28;20147;-83
2021/07/28 12:14:42;;;;;;;4.20;2.55;;;24.90;99.90;;;;;;5071646;28;20048;-84
2021/07/28 12:17:18;;;;;;;4.43;2.72;;;24.60;99.90;;;;;;5071912;28;20053;-89
2021/07/28 12:20:04;;;;;;;3.22;2.92;;;24.40;99.90;;;;;;5072023;28;20416;-85
2021/07/28 12:22:34;;;;;;;5.43;2.70;;;24.30;99.90;;;;;;5072461;28;20477;-87
2021/07/28 12:25:27;;;;;;;3.13;2.83;;;24.10;99.90;;;;;;5083910;28;20049;-86
2021/07/28 12:27:57;;;;;;;3.65;2.80;;;24.30;99.90;;;;;;5073551;28;20048;-85
2021/07/28 12:30:27;;;;;;;4.28;2.67;;;24.40;99.90;;;;;;5073265;28;20044;-84
2021/07/28 12:33:06;;;;;;;5.18;3.15;;;24.40;99.90;;;;;;5072283;28;20047;-86
2021/07/28 12:35:47;;;;;;;3.15;2.92;;;24.30;99.90;;;;;;5071769;28;20051;-85
2021/07/28 12:38:15;;;;;;;3.60;2.90;;;24.30;99.90;;;;;;5071872;28;20056;-84
2021/07/28 12:40:45;;;;;;;3.13;2.63;;;24.10;99.90;;;;;;5072090;28;20486;-85
2021/07/28 12:43:12;;;;;;;3.13;2.92;;;24.30;99.90;;;;;;5071624;28;20058;-85
2021/07/28 12:45:40;;;;;;;3.00;2.67;;;24.50;99.90;;;;;;5071651;28;20552;-86
2021/07/28 12:48:07;;;;;;;2.75;2.55;;;24.30;99.90;;;;;;5072245;28;20056;-84
2021/07/28 12:50:35;;;;;;;2.60;2.40;;;24.50;99.90;;;;;;5071687;28;20053;-86
2021/07/28 12:53:03;;;;;;;4.93;2.53;;;24.70;99.90;;;;;;5072101;28;20062;-85